Time;durP1;ratioP1;P1;durP2;ratioP2;P2;SDS_P1;SDS_P2;PMS_P1;PMS_P2;Temp;Humidity;BMP_temperature;BMP_pressure;BME280_temperature;BME280_humidity;BME280_pressure;Samples;Min_cycle;Max_cycle;Signal;HPM_P1;HPM_P2
2022/11/18 00:01:52;;;;;;;12.23;7.47;;;8.40;86.80;;;;;;5071608;28;20052;-69
2022/11/18 00:04:19;;;;;;;13.77;8.27;;;8.40;86.80;;;;;;5052959;28;20049;-69
2022/11/18 00:06:46;;;;;;;13.20;7.85;;;8.40;86.90;;;;;;5053409;28;20140;-69
2022/11/18 00:09:13;;;;;;;14.77;8.85;;;8.40;87.00;;;;;;5053588;28;20511;-69
2022/11/18 00:14:47;;;;;;;14.93;8.95;;;8.40;87.00;;;;;;5051492;28;20098;-69
2022/11/18 00:17:16;;;;;;;14.43;8.30;;;8.50;87.10;;;;;;5033268;28;20055;-69
2022/11/18 00:19:43;;;;;;;15.73;8.32;;;8.50;87.10;;;;;;5050681;28;20519;-69
2022/11/18 00:22:13;;;;;;;13.55;8.10;;;8.50;87.20;;;;;;5033298;28;20096;-69
2022/11/18 00:24:40;;;;;;;14.17;8.87;;;8.50;87.10;;;;;;5033422;28;20535;-69
2022/11/18 00:27:08;;;;;;;15.25;8.90;;;8.50;87.10;;;;;;5033620;28;20057;-69
2022/11/18 00:29:34;;;;;;;16.10;8.43;;;8.40;87.20;;;;;;5033501;28;20049;-71
2022/11/18 00:32:02;;;;;;;15.32;8.40;;;8.40;87.30;;;;;;5033078;28;20772;-69
2022/11/18 00:34:30;;;;;;;16.83;9.30;;;8.40;87.40;;;;;;5052257;28;20049;-69
2022/11/18 00:40:07;;;;;;;16.65;8.85;;;8.40;87.60;;;;;;5028876;28;20042;-69
2022/11/18 00:42:51;;;;;;;17.77;9.50;;;8.40;87.70;;;;;;5008422;28;20065;-70
2022/11/18 00:45:18;;;;;;;18.15;9.38;;;8.40;87.70;;;;;;4993125;28;20133;-70
2022/11/18 00:47:45;;;;;;;16.60;9.43;;;8.30;87.80;;;;;;5016588;28;20049;-69
2022/11/18 00:50:14;;;;;;;18.60;9.33;;;8.30;88.00;;;;;;5030385;28;20161;-69
2022/11/18 00:52:41;;;;;;;18.55;9.52;;;8.40;88.10;;;;;;5030473;28;20137;-69
2022/11/18 00:55:09;;;;;;;18.95;9.57;;;8.40;88.20;;;;;;5030946;28;20057;-69
2022/11/18 00:57:36;;;;;;;18.90;9.77;;;8.40;88.20;;;;;;5012458;28;20054;-69
2022/11/18 01:00:04;;;;;;;18.08;9.98;;;8.40;88.10;;;;;;5030355;28;20057;-70
2022/11/18 01:02:31;;;;;;;19.10;9.47;;;8.40;88.10;;;;;;5030286;28;20080;-69
2022/11/18 01:04:58;;;;;;;20.27;10.68;;;8.40;88.20;;;;;;5023315;28;20053;-69
2022/11/18 01:07:26;;;;;;;18.88;10.32;;;8.40;88.20;;;;;;4996731;28;20050;-69
2022/11/18 01:09:53;;;;;;;18.73;9.98;;;8.50;88.00;;;;;;5029551;28;20057;-69
2022/11/18 01:15:05;;;;;;;19.93;9.30;;;8.40;87.90;;;;;;5012314;28;20148;-69
2022/11/18 01:17:32;;;;;;;18.90;9.50;;;8.40;88.20;;;;;;5026083;28;20602;-69
2022/11/18 01:19:59;;;;;;;19.85;10.23;;;8.40;88.10;;;;;;5010299;28;20054;-70
2022/11/18 01:22:28;;;;;;;18.60;9.88;;;8.40;88.20;;;;;;5008831;28;20057;-69
2022/11/18 01:24:54;;;;;;;20.13;9.82;;;8.40;88.20;;;;;;4992826;28;20070;-71
2022/11/18 01:27:21;;;;;;;18.73;9.90;;;8.40;88.30;;;;;;5018254;28;20149;-69
2022/11/18 01:29:48;;;;;;;21.05;10.32;;;8.40;88.30;;;;;;5011969;28;20050;-70
2022/11/18 01:32:15;;;;;;;22.33;11.27;;;8.40;88.30;;;;;;4988769;28;20046;-69
2022/11/18 01:34:42;;;;;;;20.85;10.80;;;8.40;88.30;;;;;;4997805;28;20141;-69
2022/11/18 01:37:09;;;;;;;23.42;10.98;;;8.40;88.40;;;;;;5011630;28;20940;-70
2022/11/18 01:39:37;;;;;;;23.17;11.20;;;8.40;88.40;;;;;;5009372;28;20058;-70
2022/11/18 01:42:04;;;;;;;22.40;10.38;;;8.40;88.40;;;;;;4995146;28;20050;-69
2022/11/18 01:44:56;;;;;;;22.10;11.45;;;8.40;88.20;;;;;;5011627;28;20052;-69
2022/11/18 01:47:25;;;;;;;22.77;10.52;;;8.40;88.30;;;;;;5011345;28;20497;-69
2022/11/18 01:49:53;;;;;;;21.80;10.88;;;8.40;88.40;;;;;;5029470;28;20050;-69
2022/11/18 01:52:21;;;;;;;21.43;10.73;;;8.40;88.50;;;;;;5011560;28;20042;-69
2022/11/18 01:54:54;;;;;;;20.60;10.93;;;8.40;88.40;;;;;;5011651;28;20149;-70
2022/11/18 01:57:22;;;;;;;20.73;10.82;;;8.40;88.40;;;;;;5009810;28;20046;-69
2022/11/18 01:59:54;;;;;;;22.63;11.23;;;8.30;88.40;;;;;;5011143;28;20046;-69
2022/11/18 02:02:22;;;;;;;20.90;10.20;;;8.30;88.40;;;;;;5011351;28;20136;-70
2022/11/18 02:04:51;;;;;;;22.40;11.13;;;8.30;88.50;;;;;;5029350;28;20049;-69
2022/11/18 02:07:20;;;;;;;22.20;11.57;;;8.30;88.50;;;;;;5029266;28;20096;-69
2022/11/18 02:09:48;;;;;;;22.17;11.00;;;8.30;88.50;;;;;;5029053;28;20204;-69
2022/11/18 02:12:15;;;;;;;21.67;10.70;;;8.30;88.60;;;;;;5028855;28;20058;-69
2022/11/18 02:14:45;;;;;;;20.88;10.63;;;8.30;88.60;;;;;;5015643;28;20059;-70
2022/11/18 02:17:24;;;;;;;22.13;11.13;;;8.30;88.60;;;;;;5018998;28;20133;-70
2022/11/18 02:20:18;;;;;;;23.20;11.63;;;8.40;88.50;;;;;;5028641;28;20050;-70
2022/11/18 02:23:28;;;;;;;20.85;10.45;;;8.40;88.70;;;;;;5028119;28;20133;-71
2022/11/18 02:26:23;;;;;;;20.77;10.45;;;8.40;88.60;;;;;;5029102;28;20094;-69
2022/11/18 02:29:04;;;;;;;21.10;10.45;;;8.40;88.50;;;;;;5027363;28;20062;-71
2022/11/18 02:31:35;;;;;;;22.13;10.60;;;8.30;88.50;;;;;;5008151;28;20601;-69
2022/11/18 02:34:12;;;;;;;22.10;10.60;;;8.30;88.50;;;;;;5009827;28;20099;-69
2022/11/18 02:36:43;;;;;;;22.52;11.15;;;8.30;88.60;;;;;;4989948;28;20129;-69
2022/11/18 02:39:16;;;;;;;21.25;10.25;;;8.30;88.70;;;;;;4989166;28;20145;-70
2022/11/18 02:41:46;;;;;;;20.35;10.00;;;8.30;88.70;;;;;;5008073;28;20192;-69
2022/11/18 02:44:16;;;;;;;20.43;10.73;;;8.30;88.50;;;;;;4990603;28;20063;-69
2022/11/18 02:46:46;;;;;;;23.05;11.20;;;8.30;88.50;;;;;;4999253;28;20126;-69
2022/11/18 02:49:20;;;;;;;23.05;10.80;;;8.30;88.50;;;;;;5009312;28;20505;-69
2022/11/18 02:51:50;;;;;;;21.40;11.07;;;8.30;88.50;;;;;;5029076;28;20054;-69
2022/11/18 02:54:20;;;;;;;21.90;11.32;;;8.30;88.40;;;;;;5029215;28;20152;-69
2022/11/18 02:56:50;;;;;;;21.57;11.17;;;8.30;88.60;;;;;;5029003;28;20077;-69
2022/11/18 02:59:19;;;;;;;23.92;11.00;;;8.30;88.50;;;;;;5014404;28;20061;-69
2022/11/18 03:01:47;;;;;;;24.25;10.75;;;8.30;88.60;;;;;;5014181;28;20048;-69
2022/11/18 03:04:16;;;;;;;18.13;9.75;;;8.30;88.60;;;;;;5014357;28;20057;-69
2022/11/18 03:06:50;;;;;;;21.40;10.35;;;8.30;88.70;;;;;;5030500;28;20495;-69
2022/11/18 03:09:24;;;;;;;21.90;10.97;;;8.30;88.60;;;;;;5014403;28;20054;-69
2022/11/18 03:12:00;;;;;;;22.63;10.73;;;8.20;88.50;;;;;;5014171;28;20046;-69
2022/11/18 03:14:38;;;;;;;19.33;9.55;;;8.20;88.60;;;;;;4997989;28;20050;-69
2022/11/18 03:17:11;;;;;;;20.98;10.93;;;8.20;88.70;;;;;;5014412;28;20129;-69
2022/11/18 03:19:51;;;;;;;20.08;9.90;;;8.20;88.70;;;;;;5014736;28;20061;-69
2022/11/18 03:22:23;;;;;;;19.70;10.07;;;8.20;88.60;;;;;;5032074;28;20121;-69
2022/11/18 03:24:56;;;;;;;20.50;9.80;;;8.20;88.70;;;;;;4999698;28;20050;-69
2022/11/18 03:27:31;;;;;;;19.45;9.88;;;8.20;88.90;;;;;;4992170;28;20575;-69
2022/11/18 03:30:04;;;;;;;19.88;10.10;;;8.20;88.70;;;;;;5013915;28;20137;-69
2022/11/18 03:32:36;;;;;;;20.23;10.15;;;8.20;88.70;;;;;;5013762;28;20486;-69
2022/11/18 03:35:07;;;;;;;21.27;9.30;;;8.20;88.80;;;;;;5032017;28;20149;-69
2022/11/18 03:37:35;;;;;;;21.75;10.88;;;8.20;88.70;;;;;;5013843;28;20136;-69
2022/11/18 03:40:09;;;;;;;20.20;10.25;;;8.20;88.70;;;;;;5013904;28;20050;-69
2022/11/18 03:42:42;;;;;;;19.48;10.40;;;8.20;88.60;;;;;;4997807;28;20054;-69
2022/11/18 03:45:14;;;;;;;18.83;9.45;;;8.20;88.60;;;;;;5011077;28;20138;-70
2022/11/18 03:47:47;;;;;;;20.63;9.47;;;8.20;88.70;;;;;;5008611;28;20042;-69
2022/11/18 03:50:19;;;;;;;20.70;10.45;;;8.30;88.60;;;;;;5011918;28;20785;-69
2022/11/18 03:52:48;;;;;;;20.13;10.35;;;8.30;88.60;;;;;;4997056;28;20043;-69
2022/11/18 03:55:20;;;;;;;18.70;9.95;;;8.30;88.50;;;;;;5011637;28;20129;-69
2022/11/18 03:57:54;;;;;;;20.48;10.18;;;8.20;88.50;;;;;;4993553;28;20056;-69
2022/11/18 04:00:23;;;;;;;20.60;10.13;;;8.20;88.50;;;;;;5008291;28;20050;-70
2022/11/18 04:02:51;;;;;;;20.50;10.10;;;8.20;88.50;;;;;;5027964;28;20046;-70
2022/11/18 04:05:19;;;;;;;20.20;11.02;;;8.20;88.50;;;;;;4924104;28;20074;-70
2022/11/18 04:07:55;;;;;;;20.63;10.80;;;8.20;88.60;;;;;;5006546;28;20050;-69
2022/11/18 04:10:26;;;;;;;20.60;10.77;;;8.20;88.70;;;;;;5024549;28;20046;-70
2022/11/18 04:12:59;;;;;;;19.17;10.20;;;8.20;88.70;;;;;;5015814;28;21000;-70
2022/11/18 04:15:30;;;;;;;18.85;10.30;;;8.20;88.70;;;;;;5002096;28;20060;-69
2022/11/18 04:17:57;;;;;;;19.15;10.82;;;8.20;88.70;;;;;;4997182;28;20054;-69
2022/11/18 04:20:24;;;;;;;21.17;11.07;;;8.20;88.70;;;;;;4991772;28;20061;-70
2022/11/18 04:22:51;;;;;;;19.77;10.50;;;8.20;88.70;;;;;;4992817;28;20086;-70
2022/11/18 04:25:18;;;;;;;19.80;10.23;;;8.30;88.70;;;;;;4993820;28;20054;-70
2022/11/18 04:27:45;;;;;;;19.73;10.07;;;8.30;88.70;;;;;;5011036;28;20066;-69
2022/11/18 04:30:14;;;;;;;19.70;10.23;;;8.30;88.60;;;;;;4993444;28;20052;-69
2022/11/18 04:32:42;;;;;;;19.45;10.35;;;8.30;88.60;;;;;;4978061;28;20540;-70
2022/11/18 04:35:09;;;;;;;18.27;10.48;;;8.30;88.50;;;;;;4988075;28;20050;-70
2022/11/18 04:37:37;;;;;;;17.93;9.63;;;8.30;88.50;;;;;;5014641;28;20050;-69
2022/11/18 04:40:04;;;;;;;18.35;10.15;;;8.30;88.50;;;;;;4992698;28;20110;-69
2022/11/18 04:42:31;;;;;;;20.10;10.15;;;8.30;88.40;;;;;;4993312;28;20057;-69
2022/11/18 04:44:58;;;;;;;20.10;10.57;;;8.30;88.40;;;;;;5010717;28;20054;-70
2022/11/18 04:47:25;;;;;;;18.70;9.82;;;8.30;88.40;;;;;;5010807;28;20080;-69
2022/11/18 04:49:54;;;;;;;19.23;9.77;;;8.30;88.30;;;;;;4993736;28;20054;-69
2022/11/18 04:52:21;;;;;;;20.33;9.90;;;8.30;88.50;;;;;;4991599;28;20073;-70
2022/11/18 04:54:48;;;;;;;20.45;9.68;;;8.30;88.50;;;;;;4993287;28;20060;-70
2022/11/18 04:57:15;;;;;;;17.90;9.77;;;8.30;88.30;;;;;;5010926;28;20555;-69
2022/11/18 04:59:43;;;;;;;18.08;9.77;;;8.30;88.20;;;;;;4993285;28;21007;-70
2022/11/18 05:02:10;;;;;;;18.27;9.77;;;8.30;88.20;;;;;;4986488;28;20134;-69
2022/11/18 05:04:37;;;;;;;19.02;10.23;;;8.20;88.20;;;;;;5026120;28;20500;-70
2022/11/18 05:07:07;;;;;;;19.00;9.73;;;8.20;88.40;;;;;;4993257;28;20792;-70
2022/11/18 05:09:34;;;;;;;18.63;9.30;;;8.30;88.50;;;;;;4991030;28;20058;-70
2022/11/18 05:15:11;;;;;;;19.23;9.30;;;8.30;88.30;;;;;;4994437;28;20070;-69
2022/11/18 05:17:37;;;;;;;17.67;9.13;;;8.30;88.20;;;;;;4979225;28;20129;-70
2022/11/18 05:20:05;;;;;;;17.58;9.48;;;8.30;88.10;;;;;;4972209;28;20050;-70
2022/11/18 05:22:34;;;;;;;18.05;9.18;;;8.20;88.10;;;;;;4987310;28;20130;-69
2022/11/18 05:25:00;;;;;;;18.80;9.35;;;8.20;88.10;;;;;;5025231;28;20062;-69
2022/11/18 05:27:27;;;;;;;19.70;9.67;;;8.20;88.10;;;;;;4991364;28;20054;-70
2022/11/18 05:29:54;;;;;;;21.38;9.80;;;8.10;88.10;;;;;;4992511;28;20061;-69
2022/11/18 05:32:21;;;;;;;19.92;9.82;;;8.10;88.20;;;;;;4992024;28;20539;-69
2022/11/18 05:34:48;;;;;;;19.02;9.57;;;8.10;88.20;;;;;;5010097;28;20050;-70
2022/11/18 05:37:15;;;;;;;18.20;9.23;;;8.10;88.30;;;;;;4992338;28;20048;-70
2022/11/18 05:39:44;;;;;;;17.10;8.77;;;8.10;88.40;;;;;;4992278;28;20058;-70
2022/11/18 05:44:55;;;;;;;18.30;8.55;;;8.00;88.30;;;;;;5006708;28;20050;-69
2022/11/18 05:47:23;;;;;;;19.50;9.60;;;8.00;88.30;;;;;;5010309;28;20518;-69
2022/11/18 05:49:50;;;;;;;19.75;9.70;;;8.00;88.40;;;;;;4992465;28;20524;-70
2022/11/18 05:52:18;;;;;;;16.17;8.80;;;8.00;88.50;;;;;;4992263;28;20042;-69
2022/11/18 05:54:50;;;;;;;18.70;9.43;;;8.00;88.60;;;;;;4992405;28;20051;-69
2022/11/18 05:57:17;;;;;;;17.08;9.05;;;8.00;88.50;;;;;;4992518;28;20068;-69
2022/11/18 05:59:44;;;;;;;19.63;9.45;;;8.00;88.50;;;;;;5009502;28;20055;-69
2022/11/18 06:02:15;;;;;;;17.10;8.77;;;8.00;88.40;;;;;;4989162;28;20475;-69
2022/11/18 06:04:46;;;;;;;18.23;9.03;;;8.00;88.40;;;;;;4991856;28;20050;-70
2022/11/18 06:07:16;;;;;;;18.67;8.77;;;8.00;88.30;;;;;;4992030;28;20093;-70
2022/11/18 06:09:48;;;;;;;18.13;8.88;;;8.00;88.30;;;;;;5010009;28;20137;-70
2022/11/18 06:12:19;;;;;;;17.13;9.02;;;8.00;88.30;;;;;;5009832;28;20051;-69
2022/11/18 06:14:50;;;;;;;19.33;9.77;;;8.00;88.30;;;;;;4976300;28;20066;-70
2022/11/18 06:17:24;;;;;;;17.47;8.70;;;8.00;88.30;;;;;;4992343;28;20081;-69
2022/11/18 06:19:52;;;;;;;18.33;8.77;;;8.00;88.50;;;;;;4990166;28;20054;-70
2022/11/18 06:22:19;;;;;;;19.60;8.90;;;8.00;88.50;;;;;;4991936;28;20071;-69
2022/11/18 06:24:48;;;;;;;18.70;8.93;;;7.90;88.60;;;;;;5024683;28;20061;-69
2022/11/18 06:27:15;;;;;;;19.63;9.07;;;8.00;88.70;;;;;;4992166;28;20054;-69
2022/11/18 06:29:43;;;;;;;20.93;10.10;;;8.00;88.60;;;;;;4992021;28;20465;-69
2022/11/18 06:32:10;;;;;;;18.25;9.52;;;8.00;88.70;;;;;;4991973;28;20048;-69
2022/11/18 06:34:37;;;;;;;20.33;9.13;;;8.00;88.60;;;;;;4995568;28;20463;-69
2022/11/18 06:37:12;;;;;;;17.73;9.55;;;8.00;88.40;;;;;;5011361;28;20058;-69
2022/11/18 06:39:39;;;;;;;20.50;9.40;;;8.00;88.40;;;;;;5012590;28;20137;-69
2022/11/18 06:42:08;;;;;;;18.30;9.57;;;8.00;88.40;;;;;;4995233;28;20054;-70
2022/11/18 06:44:34;;;;;;;21.27;9.95;;;8.00;88.30;;;;;;4977950;28;20057;-69
2022/11/18 06:47:02;;;;;;;20.50;10.02;;;8.00;88.20;;;;;;4994968;28;20051;-69
2022/11/18 06:49:29;;;;;;;19.83;9.13;;;8.00;88.30;;;;;;5012395;28;20082;-69
2022/11/18 06:51:56;;;;;;;18.27;9.23;;;7.90;88.20;;;;;;4995127;28;20570;-69
2022/11/18 06:54:23;;;;;;;19.10;8.73;;;7.90;88.20;;;;;;4993043;28;20059;-70
2022/11/18 06:56:50;;;;;;;20.40;9.73;;;7.80;88.20;;;;;;4994986;28;20054;-69
2022/11/18 06:59:22;;;;;;;17.30;8.20;;;7.80;88.30;;;;;;5012451;28;20076;-69
2022/11/18 07:01:49;;;;;;;16.08;7.32;;;7.80;88.40;;;;;;4993254;28;20043;-69
2022/11/18 07:04:17;;;;;;;14.75;7.10;;;7.80;88.60;;;;;;4975295;28;20516;-69
2022/11/18 07:06:44;;;;;;;16.77;7.80;;;7.80;88.40;;;;;;4986804;28;20042;-70
2022/11/18 07:09:11;;;;;;;16.27;7.35;;;7.80;88.40;;;;;;5011048;28;20062;-69
2022/11/18 07:11:40;;;;;;;14.48;7.10;;;7.80;88.40;;;;;;4991679;28;20053;-69
2022/11/18 07:14:07;;;;;;;15.02;7.13;;;7.80;88.30;;;;;;5010889;28;20058;-69
2022/11/18 07:16:36;;;;;;;14.02;6.75;;;7.80;88.30;;;;;;4992276;28;20533;-69
2022/11/18 07:19:09;;;;;;;13.80;6.70;;;7.80;88.40;;;;;;4993878;28;20086;-69
2022/11/18 07:21:36;;;;;;;15.05;7.35;;;7.80;88.40;;;;;;5008941;28;20061;-69
2022/11/18 07:24:06;;;;;;;13.80;6.47;;;7.80;88.50;;;;;;4992304;28;20133;-69
2022/11/18 07:26:33;;;;;;;15.13;6.72;;;7.80;88.50;;;;;;5011019;28;20054;-69
2022/11/18 07:29:00;;;;;;;14.32;6.80;;;7.80;88.60;;;;;;5014053;28;20065;-69
2022/11/18 07:31:27;;;;;;;15.33;7.30;;;7.80;88.60;;;;;;5000156;28;20081;-69
2022/11/18 07:33:56;;;;;;;14.48;6.97;;;7.80;88.40;;;;;;4993768;28;20478;-70
2022/11/18 07:36:25;;;;;;;14.25;6.40;;;7.80;88.40;;;;;;5008296;28;20058;-69
2022/11/18 07:38:53;;;;;;;14.90;6.70;;;7.80;88.20;;;;;;5020004;28;20085;-69
2022/11/18 07:41:22;;;;;;;13.65;6.50;;;7.80;88.20;;;;;;5009701;28;20054;-69
2022/11/18 07:43:51;;;;;;;12.57;5.90;;;7.80;88.30;;;;;;5006668;28;20146;-69
2022/11/18 07:46:20;;;;;;;15.02;6.90;;;7.80;88.30;;;;;;5008107;28;20096;-70
2022/11/18 07:48:51;;;;;;;15.15;7.25;;;7.80;88.20;;;;;;5008566;28;20125;-70
2022/11/18 07:51:22;;;;;;;14.23;6.90;;;7.70;88.40;;;;;;5011311;28;20054;-70
2022/11/18 07:53:49;;;;;;;13.90;6.57;;;7.80;88.40;;;;;;5007719;28;20069;-70
2022/11/18 07:56:17;;;;;;;15.00;6.60;;;7.70;88.40;;;;;;4992696;28;20137;-69
2022/11/18 07:58:45;;;;;;;13.82;6.88;;;7.70;88.40;;;;;;4992838;28;20046;-69
2022/11/18 08:01:14;;;;;;;14.05;6.53;;;7.70;88.20;;;;;;4993064;28;20568;-69
2022/11/18 08:03:42;;;;;;;14.15;6.47;;;7.70;88.20;;;;;;4991715;28;20050;-69
2022/11/18 08:06:12;;;;;;;13.27;5.57;;;7.60;88.20;;;;;;4993277;28;20062;-69
2022/11/18 08:08:42;;;;;;;13.17;6.27;;;7.60;88.20;;;;;;4975906;28;20055;-70
2022/11/18 08:11:11;;;;;;;13.75;6.47;;;7.60;88.30;;;;;;4991777;28;20057;-70
2022/11/18 08:13:39;;;;;;;14.95;5.95;;;7.60;88.30;;;;;;5009912;28;20109;-70
2022/11/18 08:16:12;;;;;;;12.63;5.95;;;7.60;88.30;;;;;;4991788;28;20483;-69
2022/11/18 08:18:40;;;;;;;14.40;6.57;;;7.60;88.40;;;;;;5006953;28;20060;-69
2022/11/18 08:21:06;;;;;;;13.20;6.43;;;7.60;88.40;;;;;;5008868;28;20051;-70
2022/11/18 08:23:34;;;;;;;13.13;5.95;;;7.60;88.40;;;;;;4990486;28;20146;-69
2022/11/18 08:26:07;;;;;;;13.38;5.88;;;7.60;88.40;;;;;;4993103;28;20077;-70
2022/11/18 08:28:34;;;;;;;13.70;5.90;;;7.60;88.40;;;;;;4993064;28;20497;-70
2022/11/18 08:31:09;;;;;;;13.70;6.63;;;7.50;88.40;;;;;;4994752;28;20056;-70
2022/11/18 08:33:36;;;;;;;13.13;5.83;;;7.50;88.50;;;;;;4992536;28;20130;-70
2022/11/18 08:36:06;;;;;;;14.13;6.40;;;7.50;88.50;;;;;;5012263;28;20153;-70
2022/11/18 08:38:33;;;;;;;12.80;6.18;;;7.50;88.50;;;;;;4992671;28;20054;-70
2022/11/18 08:41:00;;;;;;;14.73;6.05;;;7.50;88.60;;;;;;4991064;28;20085;-70
2022/11/18 08:43:29;;;;;;;12.55;5.93;;;7.50;88.50;;;;;;5010254;28;20050;-70
2022/11/18 08:45:56;;;;;;;12.10;5.50;;;7.50;88.60;;;;;;5014189;28;20542;-70
2022/11/18 08:48:23;;;;;;;13.63;5.50;;;7.50;88.60;;;;;;4995068;28;20073;-70
2022/11/18 08:50:51;;;;;;;10.38;5.53;;;7.50;88.70;;;;;;4991721;28;20053;-70
2022/11/18 08:53:18;;;;;;;12.25;5.55;;;7.50;88.60;;;;;;4991880;28;20054;-70
2022/11/18 08:55:45;;;;;;;11.60;5.05;;;7.50;88.70;;;;;;5008905;28;20061;-70
2022/11/18 08:58:12;;;;;;;11.73;5.40;;;7.50;88.60;;;;;;5008652;28;21150;-70
2022/11/18 09:00:40;;;;;;;11.55;5.70;;;7.50;88.60;;;;;;5008422;28;20082;-70
2022/11/18 09:03:07;;;;;;;10.93;5.07;;;7.50;88.60;;;;;;4992177;28;20050;-69
2022/11/18 09:05:34;;;;;;;12.25;5.55;;;7.50;88.60;;;;;;4992413;28;20056;-69
2022/11/18 09:08:02;;;;;;;11.75;5.25;;;7.50;88.60;;;;;;4992212;28;20423;-69
2022/11/18 09:10:29;;;;;;;14.23;5.77;;;7.50;88.70;;;;;;4990638;28;20050;-69
2022/11/18 09:12:56;;;;;;;12.98;6.15;;;7.50;88.70;;;;;;5010097;28;20134;-70
2022/11/18 09:15:25;;;;;;;13.20;6.22;;;7.50;88.60;;;;;;4990588;28;20046;-70
2022/11/18 09:17:53;;;;;;;13.73;6.15;;;7.50;88.60;;;;;;5009040;28;20508;-69
2022/11/18 09:20:20;;;;;;;13.32;6.60;;;7.50;88.60;;;;;;5009587;28;20046;-69
2022/11/18 09:22:51;;;;;;;13.23;6.00;;;7.50;88.60;;;;;;4992143;28;20047;-69
2022/11/18 09:25:19;;;;;;;14.10;6.40;;;7.50;88.60;;;;;;5007805;28;20054;-69
2022/11/18 09:27:46;;;;;;;12.77;5.72;;;7.50;88.60;;;;;;4991990;28;20053;-69
2022/11/18 09:30:13;;;;;;;12.38;5.68;;;7.50;88.60;;;;;;5009517;28;20055;-69
2022/11/18 09:32:40;;;;;;;12.88;5.57;;;7.50;88.60;;;;;;4990639;28;20475;-70
2022/11/18 09:35:09;;;;;;;14.17;6.60;;;7.50;88.50;;;;;;4989028;28;20053;-69
2022/11/18 09:37:36;;;;;;;13.13;5.60;;;7.50;88.50;;;;;;4990490;28;20150;-69
2022/11/18 09:40:04;;;;;;;12.45;5.85;;;7.50;88.40;;;;;;5007230;28;20058;-69
2022/11/18 09:42:49;;;;;;;13.75;6.20;;;7.50;88.40;;;;;;4988844;28;20061;-69
2022/11/18 09:45:23;;;;;;;14.35;6.10;;;7.50;88.40;;;;;;4987230;28;20106;-70
2022/11/18 09:47:50;;;;;;;13.23;5.57;;;7.50;88.40;;;;;;5007383;28;20801;-70
2022/11/18 09:50:20;;;;;;;11.75;5.45;;;7.50;88.40;;;;;;5008404;28;20523;-70
2022/11/18 09:53:00;;;;;;;13.20;5.60;;;7.50;88.40;;;;;;4991478;28;20045;-70
2022/11/18 09:55:29;;;;;;;12.30;6.10;;;7.50;88.40;;;;;;5009723;28;20065;-70
2022/11/18 09:57:58;;;;;;;11.52;5.53;;;7.50;88.40;;;;;;5011830;28;20050;-70
2022/11/18 10:00:29;;;;;;;13.83;6.23;;;7.50;88.50;;;;;;4992093;28;20057;-70
2022/11/18 10:03:00;;;;;;;13.32;5.88;;;7.50;88.50;;;;;;4990511;28;20101;-70
2022/11/18 10:05:31;;;;;;;11.05;5.55;;;7.50;88.50;;;;;;5009694;28;20050;-70
2022/11/18 10:08:14;;;;;;;12.20;5.90;;;7.50;88.40;;;;;;5007734;28;20112;-70
2022/11/18 10:10:50;;;;;;;11.90;5.80;;;7.40;88.40;;;;;;4994145;28;20078;-70
2022/11/18 10:13:27;;;;;;;11.70;5.63;;;7.50;88.40;;;;;;5016099;28;20058;-69
2022/11/18 10:16:03;;;;;;;13.15;6.20;;;7.50;88.50;;;;;;5026792;28;20123;-70
2022/11/18 10:18:38;;;;;;;13.50;6.47;;;7.50;88.50;;;;;;4994297;28;20057;-69
2022/11/18 10:21:15;;;;;;;12.93;5.97;;;7.50;88.40;;;;;;4993481;28;20050;-70
2022/11/18 10:23:48;;;;;;;12.77;5.80;;;7.50;88.40;;;;;;5009841;28;20057;-70
2022/11/18 10:26:16;;;;;;;11.73;5.20;;;7.50;88.40;;;;;;4992249;28;20097;-70
2022/11/18 10:28:43;;;;;;;12.27;5.70;;;7.40;88.40;;;;;;4995499;28;20058;-69
2022/11/18 10:31:12;;;;;;;10.98;4.88;;;7.40;88.30;;;;;;5012477;28;20050;-69
2022/11/18 10:33:39;;;;;;;11.80;4.95;;;7.40;88.40;;;;;;4994931;28;20137;-69
2022/11/18 10:36:19;;;;;;;10.77;4.85;;;7.40;88.40;;;;;;5011704;28;20072;-69
2022/11/18 10:38:46;;;;;;;9.60;4.53;;;7.40;88.40;;;;;;5022134;28;20108;-70
2022/11/18 10:41:16;;;;;;;10.25;4.43;;;7.40;88.50;;;;;;5014943;28;20050;-70
2022/11/18 10:43:50;;;;;;;10.45;5.10;;;7.40;88.50;;;;;;5008740;28;20096;-70
2022/11/18 10:46:24;;;;;;;10.95;4.35;;;7.40;88.60;;;;;;4996259;28;20105;-69
2022/11/18 10:49:16;;;;;;;10.82;4.82;;;7.40;88.60;;;;;;5017778;28;20062;-69
2022/11/18 10:51:47;;;;;;;10.93;5.37;;;7.40;88.60;;;;;;5020894;28;20051;-69
2022/11/18 10:54:16;;;;;;;12.30;5.38;;;7.40;88.60;;;;;;5023467;28;20881;-70
2022/11/18 10:56:52;;;;;;;11.45;4.80;;;7.40;88.70;;;;;;5014736;28;20117;-70
2022/11/18 10:59:28;;;;;;;11.65;5.10;;;7.40;88.60;;;;;;5006057;28;20056;-70
2022/11/18 11:02:12;;;;;;;11.20;4.72;;;7.40;88.80;;;;;;4992755;28;20084;-70
2022/11/18 11:04:40;;;;;;;10.90;4.77;;;7.40;88.80;;;;;;5012790;28;20081;-69
2022/11/18 11:07:17;;;;;;;10.88;4.65;;;7.40;88.70;;;;;;4996991;28;20046;-69
2022/11/18 11:09:45;;;;;;;11.60;5.05;;;7.40;88.60;;;;;;5023679;28;20047;-71
2022/11/18 11:12:15;;;;;;;11.07;4.88;;;7.40;88.60;;;;;;5012113;28;20089;-70
2022/11/18 11:14:49;;;;;;;11.45;5.10;;;7.40;88.50;;;;;;4993086;28;20054;-69
2022/11/18 11:17:22;;;;;;;11.23;4.83;;;7.30;88.50;;;;;;5010825;28;20055;-71
2022/11/18 11:20:03;;;;;;;11.32;4.65;;;7.40;88.50;;;;;;5007351;28;20554;-71
2022/11/18 11:22:32;;;;;;;10.57;4.63;;;7.40;88.50;;;;;;4994208;28;20157;-70
2022/11/18 11:24:59;;;;;;;9.93;4.47;;;7.30;88.40;;;;;;5012780;28;20058;-70
2022/11/18 11:27:44;;;;;;;10.98;4.80;;;7.30;88.50;;;;;;5012459;28;20077;-70
2022/11/18 11:30:22;;;;;;;9.47;4.70;;;7.30;88.50;;;;;;5003324;28;20051;-70
2022/11/18 11:33:26;;;;;;;9.75;4.40;;;7.30;88.40;;;;;;4999877;28;20494;-70
2022/11/18 11:36:06;;;;;;;10.25;4.15;;;7.40;88.30;;;;;;5013046;28;20058;-70
2022/11/18 11:38:47;;;;;;;10.55;4.70;;;7.40;88.20;;;;;;4991438;28;20054;-70
2022/11/18 11:41:22;;;;;;;11.43;5.07;;;7.30;88.20;;;;;;5011839;28;20932;-70
2022/11/18 11:44:12;;;;;;;12.00;5.63;;;7.30;88.00;;;;;;5009373;28;20093;-70
2022/11/18 11:47:45;;;;;;;10.20;5.03;;;7.20;88.10;;;;;;4999501;28;20607;-70
2022/11/18 11:49:52;;;;;;;11.15;5.53;;;7.30;88.10;;;;;;4991619;28;20792;-69
2022/11/18 11:52:29;;;;;;;11.40;5.35;;;7.20;88.00;;;;;;5013525;28;20078;-70
2022/11/18 11:55:05;;;;;;;12.23;5.65;;;7.20;88.10;;;;;;5002627;28;20143;-70
2022/11/18 11:57:44;;;;;;;12.17;5.27;;;7.20;88.10;;;;;;5001503;28;20129;-70
2022/11/18 12:00:14;;;;;;;11.18;4.60;;;7.20;87.90;;;;;;5022008;28;20058;-71
2022/11/18 12:03:05;;;;;;;10.30;5.00;;;7.20;87.80;;;;;;5015748;28;20098;-69
2022/11/18 12:05:41;;;;;;;10.68;4.53;;;7.20;87.70;;;;;;4991377;28;20045;-70
2022/11/18 12:08:14;;;;;;;11.05;4.50;;;7.20;87.60;;;;;;5009390;28;20105;-70
2022/11/18 12:10:48;;;;;;;9.90;4.20;;;7.10;87.60;;;;;;5024612;28;20100;-69
2022/11/18 12:13:32;;;;;;;9.52;3.95;;;7.10;87.50;;;;;;5007527;28;20081;-70
2022/11/18 12:16:11;;;;;;;8.93;4.10;;;7.00;87.50;;;;;;5006950;28;20042;-70
2022/11/18 12:18:43;;;;;;;8.85;3.55;;;7.00;87.40;;;;;;4990218;28;20042;-70
2022/11/18 12:21:44;;;;;;;9.23;4.13;;;7.00;87.50;;;;;;4993720;28;20065;-70
2022/11/18 12:24:37;;;;;;;8.43;3.57;;;7.00;87.40;;;;;;4994902;28;20493;-70
2022/11/18 12:27:12;;;;;;;9.18;3.90;;;7.00;87.30;;;;;;4974214;28;20059;-70
2022/11/18 12:29:56;;;;;;;9.40;4.15;;;7.00;87.40;;;;;;4970182;28;20050;-70
2022/11/18 12:32:30;;;;;;;10.45;4.00;;;6.90;87.40;;;;;;5010022;28;20101;-70
2022/11/18 12:35:00;;;;;;;7.82;3.45;;;6.90;87.30;;;;;;5012787;28;20084;-70
2022/11/18 12:37:56;;;;;;;8.33;3.20;;;6.90;87.30;;;;;;4990661;28;20055;-70
2022/11/18 12:40:36;;;;;;;9.63;3.58;;;6.90;87.30;;;;;;5009646;28;20056;-70
2022/11/18 12:45:54;;;;;;;9.38;4.03;;;6.80;87.30;;;;;;5023102;28;20098;-70
2022/11/18 12:48:35;;;;;;;10.13;3.50;;;6.80;87.40;;;;;;5008724;28;20768;-69
2022/11/18 12:51:30;;;;;;;10.00;4.10;;;6.80;87.20;;;;;;5009717;28;20074;-69
2022/11/18 12:53:58;;;;;;;9.50;4.30;;;6.80;87.10;;;;;;5021861;28;20168;-69
2022/11/18 12:56:27;;;;;;;9.95;4.15;;;6.70;87.10;;;;;;5010257;28;20058;-69
2022/11/18 12:58:58;;;;;;;11.15;4.93;;;6.70;87.10;;;;;;4992085;28;20051;-69
2022/11/18 13:01:27;;;;;;;11.07;4.53;;;6.70;87.00;;;;;;5024916;28;20946;-69
2022/11/18 13:04:07;;;;;;;11.40;5.00;;;6.70;87.10;;;;;;4992784;28;20061;-70
2022/11/18 13:06:37;;;;;;;12.10;4.80;;;6.70;87.10;;;;;;4992117;28;20436;-70
2022/11/18 13:12:18;;;;;;;11.60;4.45;;;6.70;87.10;;;;;;4989316;28;20484;-70
2022/11/18 13:17:54;;;;;;;12.20;4.60;;;6.70;87.10;;;;;;4993650;28;20129;-69
2022/11/18 13:20:23;;;;;;;11.88;4.50;;;6.70;87.10;;;;;;4989867;28;20055;-70
2022/11/18 13:25:36;;;;;;;13.13;5.88;;;6.70;87.00;;;;;;4989616;28;20078;-70
2022/11/18 13:28:13;;;;;;;14.13;5.90;;;6.60;86.70;;;;;;4989930;28;20072;-70
2022/11/18 13:30:51;;;;;;;14.50;5.67;;;6.60;86.70;;;;;;4990162;28;20962;-69
2022/11/18 13:33:18;;;;;;;12.93;5.40;;;6.60;86.60;;;;;;5023548;28;20630;-69